Terminal Aerodrome Forecast
Issued by NWS Shreveport, LA

Home | Current Version | Previous Version | Text Only | Print | Product List | Glossary On
Versions: 1 2 3 4 5 6 7 8 9 10 11 12 13 14 15 16 17 18 19 20
000
FTUS44 KSHV 241720
TAFSHV
TAF
KSHV 241720Z 2418/2518 18012KT P6SM -SHRA VCTS BKN025CB
     FM241900 18014G22KT 5SM -TSRA BR OVC025CB
     FM250200 16008KT P6SM OVC015
     FM250400 17010KT 5SM -TSRA BR OVC020CB
     FM251200 17010KT P6SM BKN020=

USA.gov is the U.S. government's official web portal to all federal, state and local government web resources and services.